Time;durP1;ratioP1;P1;durP2;ratioP2;P2;SDS_P1;SDS_P2;PMS_P1;PMS_P2;Temp;Humidity;BMP_temperature;BMP_pressure;BME280_temperature;BME280_humidity;BME280_pressure;Samples;Min_cycle;Max_cycle;Signal;HPM_P1;HPM_P2
2023/01/27 00:01:22;;;;;;;28.33;19.13;;;;;;;1.36;73.25;101123.59;4184582;28;20037;-65
2023/01/27 00:03:25;;;;;;;28.80;17.00;;;;;;;1.42;73.85;101117.97;4171232;28;20060;-65
2023/01/27 00:05:28;;;;;;;32.95;18.50;;;;;;;1.46;73.52;101119.94;4183704;28;20171;-65
2023/01/27 00:07:31;;;;;;;26.08;16.58;;;;;;;1.48;73.44;101122.59;4182034;28;20068;-66
2023/01/27 00:09:33;;;;;;;29.20;18.35;;;;;;;1.47;73.43;101120.81;4181263;28;20041;-66
2023/01/27 00:13:56;;;;;;;30.10;19.13;;;;;;;1.47;73.29;101120.81;4182043;28;20118;-65
2023/01/27 00:16:01;;;;;;;25.90;16.50;;;;;;;1.48;73.56;101120.91;4183857;28;20044;-65
2023/01/27 00:18:04;;;;;;;26.13;16.13;;;;;;;1.42;73.49;101117.06;4183618;28;20033;-65
2023/01/27 00:20:09;;;;;;;25.30;15.93;;;;;;;1.36;73.29;101113.34;4180095;28;20041;-65
2023/01/27 00:24:37;;;;;;;29.40;18.52;;;;;;;1.42;73.45;101107.72;4180943;28;20055;-65
2023/01/27 00:26:40;;;;;;;31.60;18.27;;;;;;;1.50;73.00;101110.75;4184469;28;21168;-66
2023/01/27 00:28:45;;;;;;;32.17;19.98;;;;;;;1.46;72.96;101104.56;4179521;28;20399;-65
2023/01/27 00:30:48;;;;;;;28.83;17.67;;;;;;;1.46;73.60;101103.66;4191001;28;20375;-65
2023/01/27 00:35:15;;;;;;;34.30;19.30;;;;;;;1.44;73.56;101098.44;4182482;28;20402;-66
2023/01/27 00:37:20;;;;;;;33.40;18.92;;;;;;;1.40;73.38;101099.03;4187524;28;20040;-66
2023/01/27 00:39:23;;;;;;;34.28;21.15;;;;;;;1.39;73.89;101100.72;4185515;28;20049;-65
2023/01/27 00:41:27;;;;;;;37.25;22.17;;;;;;;1.43;73.39;101099.25;4165881;28;20036;-65
2023/01/27 00:43:30;;;;;;;34.63;22.58;;;;;;;1.42;73.47;101102.59;4186876;28;20070;-65
2023/01/27 00:45:51;;;;;;;41.67;23.73;;;;;;;1.41;73.72;101095.69;4192970;28;20048;-65
2023/01/27 00:47:55;;;;;;;36.83;22.10;;;;;;;1.42;73.71;101101.69;4191293;28;20041;-65
2023/01/27 00:49:59;;;;;;;;;;;;;;;1.39;73.92;101092.16;4194863;28;20094;-66
2023/01/27 00:52:02;;;;;;;31.83;19.27;;;;;;;1.41;73.47;101087.13;4175640;28;19921;-65
2023/01/27 00:54:05;;;;;;;38.50;21.65;;;;;;;1.42;73.80;101084.66;4186009;28;20071;-65
2023/01/27 00:56:08;;;;;;;29.75;19.08;;;;;;;1.46;74.24;101093.41;4191882;28;20040;-65
2023/01/27 00:58:11;;;;;;;35.25;21.95;;;;;;;1.48;73.97;101091.84;4186567;28;20028;-65
2023/01/27 01:00:15;;;;;;;35.88;21.73;;;;;;;1.59;73.45;101090.78;4173166;28;20045;-65
2023/01/27 01:02:18;;;;;;;32.47;20.23;;;;;;;1.53;73.35;101098.13;4189424;28;20131;-65
2023/01/27 01:04:23;;;;;;;34.00;19.45;;;;;;;1.45;73.51;101097.66;4163643;28;20048;-65
2023/01/27 01:06:26;;;;;;;32.75;21.67;;;;;;;1.45;73.53;101091.66;4177364;28;20041;-65
2023/01/27 01:08:30;;;;;;;37.80;21.50;;;;;;;1.42;73.68;101088.88;4201261;28;20045;-65
2023/01/27 01:10:33;;;;;;;32.30;20.58;;;;;;;1.42;73.72;101092.34;4192746;28;20036;-65
2023/01/27 01:12:36;;;;;;;33.35;20.83;;;;;;;1.50;73.73;101090.25;4185890;28;20037;-65
2023/01/27 01:14:39;;;;;;;35.08;20.55;;;;;;;1.46;73.55;101094.31;4185523;28;20036;-65
2023/01/27 01:16:41;;;;;;;32.90;20.02;;;;;;;1.46;73.35;101093.41;4185389;28;20083;-65
2023/01/27 01:18:45;;;;;;;32.38;20.35;;;;;;;1.48;73.27;101099.53;4186936;28;20135;-65
2023/01/27 01:20:49;;;;;;;31.88;19.00;;;;;;;1.46;73.89;101104.56;4182700;28;20041;-65
2023/01/27 01:22:52;;;;;;;28.60;18.98;;;;;;;1.43;73.91;101100.91;4190619;28;20025;-66
2023/01/27 01:24:56;;;;;;;30.57;19.70;;;;;;;1.43;73.65;101094.13;4180387;28;20449;-65
2023/01/27 01:26:59;;;;;;;30.58;18.67;;;;;;;1.48;74.16;101100.41;4182302;28;20025;-65
2023/01/27 01:29:02;;;;;;;30.23;17.98;;;;;;;1.50;73.91;101092.81;4193082;28;20032;-66
2023/01/27 01:31:05;;;;;;;31.88;19.23;;;;;;;1.52;73.86;101096.34;4170628;28;20045;-65
2023/01/27 01:33:08;;;;;;;33.70;21.15;;;;;;;1.56;73.74;101095.72;4188738;28;20041;-66
2023/01/27 01:35:11;;;;;;;34.47;20.15;;;;;;;1.54;73.84;101094.75;4188315;28;20086;-65
2023/01/27 01:37:16;;;;;;;30.20;17.85;;;;;;;1.56;73.37;101096.63;4180722;28;20044;-65
2023/01/27 01:39:19;;;;;;;34.47;20.88;;;;;;;1.60;73.29;101100.25;4183362;28;20637;-65
2023/01/27 01:41:22;;;;;;;31.85;19.90;;;;;;;1.59;73.30;101095.91;4194309;28;20033;-65
2023/01/27 01:43:26;;;;;;;31.95;17.33;;;;;;;1.63;72.99;101092.75;4190143;28;20102;-65
2023/01/27 01:45:55;;;;;;;31.98;19.27;;;;;;;1.61;73.01;101094.34;4189035;28;20036;-65
2023/01/27 01:47:58;;;;;;;31.23;18.95;;;;;;;1.61;72.85;101098.56;4186782;28;20036;-65
2023/01/27 01:50:01;;;;;;;30.42;18.63;;;;;;;1.64;72.96;101097.09;4187190;28;20048;-65
2023/01/27 01:52:09;;;;;;;32.92;18.65;;;;;;;1.60;72.75;101102.81;4179537;28;20437;-66
2023/01/27 01:54:16;;;;;;;31.02;20.05;;;;;;;1.61;72.70;101099.47;4184427;28;20453;-65
2023/01/27 01:56:23;;;;;;;33.75;20.20;;;;;;;1.67;72.73;101094.72;4182155;28;20097;-66
2023/01/27 01:58:27;;;;;;;30.00;18.13;;;;;;;1.62;72.72;101106.38;4176811;28;20486;-66
2023/01/27 02:00:32;;;;;;;32.88;17.63;;;;;;;1.57;73.06;101097.50;4183288;28;20614;-65
2023/01/27 02:02:37;;;;;;;33.33;20.55;;;;;;;1.59;72.97;101095.91;4194027;28;20490;-66
2023/01/27 02:04:45;;;;;;;34.90;20.80;;;;;;;1.70;72.19;101094.88;4188927;28;20052;-66
2023/01/27 02:06:54;;;;;;;25.20;17.45;;;;;;;1.65;72.14;101096.31;4182209;28;20040;-66
2023/01/27 02:08:57;;;;;;;29.45;18.75;;;;;;;1.72;72.22;101093.31;4190424;28;20472;-66
2023/01/27 02:11:01;;;;;;;33.60;19.88;;;;;;;1.64;72.42;101080.84;4185146;28;20033;-66
2023/01/27 02:13:04;;;;;;;36.65;20.25;;;;;;;1.63;72.40;101090.19;4187732;28;20037;-65
2023/01/27 02:15:09;;;;;;;29.20;17.98;;;;;;;1.60;72.59;101087.44;4172572;28;20041;-66
2023/01/27 02:17:13;;;;;;;34.97;18.50;;;;;;;1.59;72.48;101090.78;4176903;28;20098;-66
2023/01/27 02:19:24;;;;;;;30.35;18.02;;;;;;;1.60;72.17;101087.44;4182939;28;20028;-65
2023/01/27 02:21:27;;;;;;;33.33;19.73;;;;;;;1.57;72.39;101074.44;4184288;28;20411;-65
2023/01/27 02:23:55;;;;;;;30.92;19.15;;;;;;;1.63;72.34;101079.06;4183588;28;20532;-65
2023/01/27 02:26:03;;;;;;;30.98;18.60;;;;;;;1.63;72.07;101072.25;4168793;28;20053;-65
2023/01/27 02:28:08;;;;;;;30.10;19.13;;;;;;;1.68;71.79;101073.44;4194855;28;20040;-66
2023/01/27 02:30:11;;;;;;;29.17;18.70;;;;;;;1.67;71.73;101074.22;4186740;28;20048;-65
2023/01/27 02:32:23;;;;;;;30.08;17.60;;;;;;;1.77;71.56;101075.66;4179596;28;20418;-66
2023/01/27 02:34:32;;;;;;;27.52;16.58;;;;;;;1.76;71.19;101079.00;4180495;28;20119;-66
2023/01/27 02:36:40;;;;;;;29.25;18.70;;;;;;;1.65;71.36;101078.38;4180218;28;20136;-66
2023/01/27 02:38:47;;;;;;;33.60;18.08;;;;;;;1.66;71.52;101080.13;4180006;28;20115;-66
2023/01/27 02:40:55;;;;;;;30.52;17.70;;;;;;;1.78;71.25;101086.78;4185518;28;20391;-66
2023/01/27 02:43:00;;;;;;;27.00;16.70;;;;;;;1.66;71.03;101090.38;4189403;28;20094;-66
2023/01/27 02:45:03;;;;;;;29.95;18.30;;;;;;;1.65;71.74;101082.59;4186202;28;20102;-66
2023/01/27 02:47:07;;;;;;;28.10;16.58;;;;;;;1.69;71.26;101085.41;4182451;28;20124;-66
2023/01/27 02:49:10;;;;;;;26.17;14.80;;;;;;;1.67;71.04;101079.34;4189889;28;20079;-66
2023/01/27 02:51:13;;;;;;;26.52;16.35;;;;;;;1.69;71.46;101087.97;4171314;28;20129;-66
2023/01/27 02:53:18;;;;;;;27.98;16.10;;;;;;;1.63;71.74;101082.50;4180254;28;20086;-65
2023/01/27 02:55:21;;;;;;;26.67;17.02;;;;;;;1.56;71.52;101081.25;4186636;28;20100;-66
2023/01/27 02:57:26;;;;;;;;;;;;;;;1.53;72.25;101082.75;4181656;28;20083;-66
2023/01/27 02:59:59;;;;;;;25.35;15.88;;;;;;;1.56;71.70;101088.03;4186396;28;19920;-65
2023/01/27 03:02:02;;;;;;;25.77;15.32;;;;;;;1.61;71.44;101085.75;4186671;28;20032;-66
2023/01/27 03:04:07;;;;;;;21.83;13.75;;;;;;;1.48;71.93;101090.16;4182684;28;20048;-66
2023/01/27 03:06:10;;;;;;;23.70;14.68;;;;;;;1.54;71.65;101092.22;4182290;28;20037;-66
2023/01/27 03:08:14;;;;;;;28.73;16.33;;;;;;;1.53;72.32;101093.00;4185280;28;20032;-66
2023/01/27 03:10:17;;;;;;;24.48;14.85;;;;;;;1.53;71.53;101086.22;4193308;28;20075;-66
2023/01/27 03:12:19;;;;;;;25.08;14.73;;;;;;;1.62;71.47;101095.22;4189289;28;20040;-66
2023/01/27 03:19:00;;;;;;;25.73;15.48;;;;;;;1.59;71.60;101090.78;4141922;28;20462;-66
2023/01/27 03:21:06;;;;;;;32.45;17.30;;;;;;;1.74;71.32;101091.72;4171542;28;20051;-66
2023/01/27 03:23:10;;;;;;;26.02;15.55;;;;;;;1.64;71.13;101086.84;4183340;28;20110;-67
2023/01/27 03:25:13;;;;;;;27.60;15.52;;;;;;;1.64;71.12;101094.53;4190165;28;20037;-65
2023/01/27 03:27:19;;;;;;;27.95;15.77;;;;;;;1.60;71.43;101092.56;4172091;28;20053;-66
2023/01/27 03:29:56;;;;;;;28.70;17.60;;;;;;;1.52;71.86;101098.91;4184785;28;20041;-66
2023/01/27 03:32:00;;;;;;;27.90;16.88;;;;;;;1.56;71.75;101098.28;4180692;28;20465;-66
2023/01/27 03:34:04;;;;;;;29.17;16.83;;;;;;;1.56;71.60;101095.72;4178990;28;20033;-66
2023/01/27 03:47:58;;;;;;;31.30;17.02;;;;;;;1.35;73.36;101093.63;4179122;28;20062;-66
2023/01/27 03:50:01;;;;;;;29.63;17.83;;;;;;;1.45;73.11;101107.03;4181255;28;20487;-66
2023/01/27 03:52:04;;;;;;;29.48;17.02;;;;;;;1.44;72.78;101105.25;4182757;28;20491;-66
2023/01/27 03:54:08;;;;;;;33.47;17.35;;;;;;;1.54;72.82;101102.47;4182462;28;20490;-66
2023/01/27 03:56:11;;;;;;;34.35;19.13;;;;;;;1.52;72.93;101104.03;4188951;28;20032;-66
2023/01/27 03:58:18;;;;;;;33.50;17.63;;;;;;;1.54;72.72;101098.19;4190006;28;20116;-66
2023/01/27 04:00:21;;;;;;;33.58;17.80;;;;;;;1.54;72.71;101110.16;4189593;28;20145;-66
2023/01/27 04:07:07;;;;;;;35.78;18.05;;;;;;;1.26;73.76;101111.00;4181861;28;20041;-66
2023/01/27 04:09:11;;;;;;;33.15;18.67;;;;;;;1.33;74.26;101105.47;4184259;28;20406;-66
2023/01/27 04:13:34;;;;;;;33.97;17.90;;;;;;;1.45;73.40;101123.28;4182737;28;20040;-66
2023/01/27 04:15:39;;;;;;;35.88;17.77;;;;;;;1.50;73.46;101123.56;4186932;28;20116;-66
2023/01/27 04:17:42;;;;;;;35.97;17.80;;;;;;;1.54;73.49;101120.38;4188314;28;20509;-65
2023/01/27 04:19:46;;;;;;;34.17;17.77;;;;;;;1.28;74.02;101123.91;4193292;28;20490;-66
2023/01/27 04:21:49;;;;;;;28.92;17.13;;;;;;;1.24;74.30;101120.25;4191164;28;20044;-66
2023/01/27 04:23:53;;;;;;;38.78;20.17;;;;;;;1.35;74.01;101115.81;4187960;28;20434;-65
2023/01/27 04:25:56;;;;;;;30.05;18.17;;;;;;;1.37;74.04;101122.81;4188901;28;20041;-66
2023/01/27 04:27:59;;;;;;;37.03;19.42;;;;;;;1.39;74.05;101118.66;4196705;28;20040;-66
2023/01/27 04:30:02;;;;;;;35.65;18.27;;;;;;;1.39;74.14;101118.66;4186523;28;20501;-66
2023/01/27 04:32:05;;;;;;;40.97;20.67;;;;;;;1.33;74.36;101122.50;4188172;28;22015;-66
2023/01/27 04:34:10;;;;;;;35.42;19.17;;;;;;;1.34;74.07;101120.06;4188798;28;20029;-66
2023/01/27 04:36:14;;;;;;;36.45;19.05;;;;;;;1.33;73.93;101120.84;4190386;28;20095;-66
2023/01/27 04:38:17;;;;;;;34.65;19.38;;;;;;;1.25;74.52;101122.03;4190270;28;20048;-66
2023/01/27 04:40:19;;;;;;;39.20;19.95;;;;;;;1.34;74.36;101127.75;4184186;28;20040;-66
2023/01/27 04:42:22;;;;;;;41.00;19.20;;;;;;;1.27;74.61;101127.25;4189026;28;20041;-65
2023/01/27 04:44:25;;;;;;;33.53;18.98;;;;;;;1.32;74.75;101129.31;4187253;28;20032;-65
2023/01/27 04:46:28;;;;;;;37.90;18.98;;;;;;;1.32;74.73;101123.31;4185379;28;20040;-67
2023/01/27 04:48:31;;;;;;;35.28;18.92;;;;;;;1.31;74.52;101130.09;4192773;28;20049;-68
2023/01/27 04:50:34;;;;;;;36.58;18.20;;;;;;;1.33;74.67;101122.50;4182852;28;20127;-67
2023/01/27 04:52:38;;;;;;;37.20;18.35;;;;;;;1.33;74.75;101128.53;4183116;28;20125;-67
2023/01/27 04:54:42;;;;;;;;;;;;;;;1.32;74.97;101126.75;4187213;28;20033;-68
2023/01/27 04:56:56;;;;;;;33.42;16.17;;;;;;;1.39;74.54;101133.16;4184934;28;19921;-67
2023/01/27 04:59:00;;;;;;;31.55;17.88;;;;;;;1.38;74.73;101131.38;4187129;28;20163;-68
2023/01/27 05:01:03;;;;;;;32.55;17.80;;;;;;;1.44;74.69;101128.31;4185714;28;20422;-68
2023/01/27 05:03:08;;;;;;;29.15;15.93;;;;;;;1.43;73.95;101123.97;4181063;28;20052;-68
2023/01/27 05:05:11;;;;;;;;;;;;;;;1.50;73.94;101136.38;4183369;28;20029;-68
2023/01/27 05:07:14;;;;;;;23.42;12.95;;;;;;;1.64;72.62;101134.66;4184845;28;19970;-69
2023/01/27 05:09:18;;;;;;;25.92;15.00;;;;;;;1.54;71.65;101138.31;4185584;28;20064;-67
2023/01/27 05:11:21;;;;;;;24.15;13.70;;;;;;;1.48;72.68;101135.41;4192084;28;20048;-66
2023/01/27 05:13:24;;;;;;;29.33;16.10;;;;;;;1.61;72.02;101140.47;4189170;28;20499;-66
2023/01/27 05:15:27;;;;;;;26.35;14.45;;;;;;;1.54;72.40;101130.63;4180802;28;20076;-66
2023/01/27 05:17:31;;;;;;;25.60;14.35;;;;;;;1.49;72.77;101139.72;4190602;28;20401;-67
2023/01/27 05:19:34;;;;;;;26.88;15.50;;;;;;;1.62;72.38;101142.25;4184711;28;20053;-66
2023/01/27 05:21:38;;;;;;;27.05;15.00;;;;;;;1.67;71.76;101135.72;4189081;28;20506;-67
2023/01/27 05:23:41;;;;;;;24.70;14.18;;;;;;;1.54;72.17;101135.75;4184085;28;20175;-67
2023/01/27 05:25:45;;;;;;;30.38;15.82;;;;;;;1.58;72.07;101135.16;4196155;28;20094;-66
2023/01/27 05:27:48;;;;;;;26.70;14.90;;;;;;;1.57;72.45;101128.25;4185409;28;20040;-66
2023/01/27 05:29:51;;;;;;;28.35;16.05;;;;;;;1.54;72.40;101126.38;4185418;28;20048;-66
2023/01/27 05:31:54;;;;;;;28.00;15.65;;;;;;;1.57;72.39;101138.50;4182290;28;20419;-67
2023/01/27 05:33:59;;;;;;;24.65;13.93;;;;;;;1.57;73.13;101141.94;4184511;28;20029;-60
2023/01/27 05:36:03;;;;;;;26.63;14.82;;;;;;;1.93;74.56;101136.41;4185191;28;20145;-60
2023/01/27 05:38:06;;;;;;;26.05;15.63;;;;;;;2.08;73.93;101133.88;4186033;28;20045;-61
2023/01/27 05:40:11;;;;;;;23.23;13.48;;;;;;;2.52;74.81;101127.00;4196984;28;20044;-74
2023/01/27 05:42:15;;;;;;;27.58;15.93;;;;;;;2.66;72.14;101120.97;4187133;28;20486;-68
2023/01/27 05:44:18;;;;;;;35.92;22.30;;;;;;;2.65;70.45;101129.47;4186336;28;20048;-69
2023/01/27 05:46:23;;;;;;;54.67;32.97;;;;;;;2.54;69.19;101133.09;4196982;28;20398;-69
2023/01/27 05:48:26;;;;;;;24.50;14.65;;;;;;;2.36;68.96;101126.09;4198526;28;20128;-68
2023/01/27 05:50:29;;;;;;;23.98;15.00;;;;;;;2.21;69.48;101130.38;4188493;28;20036;-68
2023/01/27 05:52:31;;;;;;;33.60;23.65;;;;;;;2.14;69.59;101135.94;4185524;28;20090;-69
2023/01/27 05:54:34;;;;;;;29.10;15.68;;;;;;;2.11;69.87;101146.00;4188858;28;20037;-69
2023/01/27 05:56:38;;;;;;;26.67;14.77;;;;;;;1.99;69.47;101141.91;4192523;28;20044;-69
2023/01/27 05:58:43;;;;;;;23.50;13.80;;;;;;;1.97;69.52;101146.06;4192733;28;20032;-69
2023/01/27 06:00:46;;;;;;;24.83;14.00;;;;;;;2.01;69.96;101150.56;4180299;28;20076;-67
2023/01/27 06:02:49;;;;;;;23.83;13.95;;;;;;;1.96;69.87;101145.94;4182861;28;20057;-66
2023/01/27 06:04:52;;;;;;;22.02;13.55;;;;;;;2.00;69.52;101151.38;4184643;28;20383;-68
2023/01/27 06:06:54;;;;;;;25.65;13.85;;;;;;;2.01;68.86;101153.13;4186385;28;20080;-69
2023/01/27 06:08:58;;;;;;;24.67;14.60;;;;;;;1.93;69.84;101151.81;4183921;28;20541;-67
2023/01/27 06:11:01;;;;;;;23.23;13.15;;;;;;;1.86;69.79;101155.66;4185264;28;20033;-67
2023/01/27 06:13:04;;;;;;;26.17;15.05;;;;;;;1.92;69.93;101157.72;4189905;28;20194;-67
2023/01/27 06:15:10;;;;;;;21.55;12.52;;;;;;;1.89;69.72;101160.97;4193279;28;20028;-67
2023/01/27 06:17:13;;;;;;;25.73;12.80;;;;;;;1.95;69.72;101157.03;4183988;28;20039;-67
2023/01/27 06:19:16;;;;;;;22.75;13.15;;;;;;;1.99;69.65;101156.41;4184497;28;20487;-67
2023/01/27 06:21:19;;;;;;;22.67;13.85;;;;;;;1.99;69.23;101159.84;4189606;28;20029;-68
2023/01/27 06:23:22;;;;;;;25.60;14.90;;;;;;;1.94;69.53;101156.13;4188160;28;20040;-67
2023/01/27 06:25:25;;;;;;;23.00;13.63;;;;;;;1.97;69.35;101158.00;4191009;28;20049;-67
2023/01/27 06:27:28;;;;;;;26.25;14.68;;;;;;;2.01;69.56;101163.38;4185548;28;20049;-67
2023/01/27 06:29:31;;;;;;;25.55;14.27;;;;;;;2.00;69.46;101161.63;4188317;28;20536;-67
2023/01/27 06:31:35;;;;;;;24.35;13.32;;;;;;;1.95;69.81;101157.91;4191325;28;20052;-67
2023/01/27 06:33:38;;;;;;;23.50;14.40;;;;;;;2.00;70.16;101153.03;4191604;28;20044;-67
2023/01/27 06:35:41;;;;;;;23.38;13.80;;;;;;;2.00;70.07;101160.72;4189827;28;20044;-67
2023/01/27 06:37:44;;;;;;;23.65;14.27;;;;;;;1.98;69.61;101157.22;4183520;28;20423;-67
2023/01/27 06:39:47;;;;;;;22.85;14.15;;;;;;;1.98;69.87;101162.34;4187951;28;20044;-67
2023/01/27 06:41:51;;;;;;;24.02;14.73;;;;;;;2.05;70.20;101160.22;4186684;28;20049;-67
2023/01/27 06:43:55;;;;;;;28.75;15.38;;;;;;;2.04;69.81;101158.44;4169777;28;20049;-67
2023/01/27 06:45:58;;;;;;;24.42;14.73;;;;;;;2.07;70.81;101160.31;4186018;28;20082;-66
2023/01/27 06:48:02;;;;;;;26.67;14.55;;;;;;;2.07;70.53;101157.75;4193060;28;20482;-67
2023/01/27 06:50:06;;;;;;;25.45;14.18;;;;;;;2.04;69.78;101163.56;4165674;28;20048;-67
2023/01/27 06:52:09;;;;;;;23.98;14.65;;;;;;;1.97;69.91;101166.59;4184641;28;20048;-67
2023/01/27 06:54:11;;;;;;;24.17;13.65;;;;;;;1.92;70.29;101170.53;4197817;28;20062;-67
2023/01/27 06:56:14;;;;;;;30.17;16.00;;;;;;;1.95;70.67;101172.41;4184872;28;20045;-67
2023/01/27 06:58:19;;;;;;;25.13;14.60;;;;;;;1.95;70.72;101172.41;4187298;28;20486;-67
2023/01/27 07:00:22;;;;;;;25.88;14.85;;;;;;;1.94;70.83;101184.31;4189597;28;20403;-67
2023/01/27 07:02:25;;;;;;;26.23;14.02;;;;;;;1.98;70.61;101183.72;4189425;28;20406;-67
2023/01/27 07:04:29;;;;;;;22.92;14.00;;;;;;;2.02;70.75;101183.13;4185042;28;20078;-67
2023/01/27 07:06:33;;;;;;;22.35;13.45;;;;;;;2.07;71.09;101183.38;4187213;28;20043;-67
2023/01/27 07:08:36;;;;;;;27.00;15.68;;;;;;;2.07;70.78;101189.44;4190769;28;20525;-67
2023/01/27 07:10:39;;;;;;;22.75;13.50;;;;;;;2.05;70.66;101195.25;4190279;28;20447;-67
2023/01/27 07:12:41;;;;;;;23.83;14.65;;;;;;;2.14;70.47;101197.47;4183722;28;20440;-68
2023/01/27 07:14:44;;;;;;;23.90;13.90;;;;;;;2.23;69.53;101201.50;4184991;28;20037;-68
2023/01/27 07:16:47;;;;;;;25.38;13.63;;;;;;;2.18;69.50;101200.31;4178470;28;20106;-68
2023/01/27 07:18:50;;;;;;;24.42;13.95;;;;;;;2.21;69.34;101202.19;4170209;28;20036;-68
2023/01/27 07:20:54;;;;;;;23.83;13.95;;;;;;;2.14;69.40;101206.06;4178989;28;20040;-68
2023/01/27 07:22:58;;;;;;;24.52;13.85;;;;;;;2.25;69.51;101211.84;4181888;28;20044;-68
2023/01/27 07:25:01;;;;;;;29.27;14.77;;;;;;;2.25;69.12;101210.16;4189454;28;20517;-68
2023/01/27 07:27:04;;;;;;;29.10;15.68;;;;;;;2.16;68.99;101218.97;4185407;28;20041;-68
2023/01/27 07:29:08;;;;;;;25.30;14.18;;;;;;;2.07;69.14;101216.72;4191852;28;20086;-68
2023/01/27 07:31:11;;;;;;;24.77;14.65;;;;;;;2.11;69.61;101217.81;4188804;28;20041;-68
2023/01/27 07:33:14;;;;;;;23.60;15.00;;;;;;;2.04;69.94;101225.13;4185862;28;20465;-68
2023/01/27 07:35:17;;;;;;;27.92;16.83;;;;;;;1.91;70.52;101227.72;4183948;28;20048;-67
2023/01/27 07:37:22;;;;;;;26.30;14.85;;;;;;;1.97;70.22;101232.34;4184384;28;20063;-68
2023/01/27 07:39:25;;;;;;;24.00;13.95;;;;;;;1.98;70.36;101226.44;4184543;28;20036;-68
2023/01/27 07:41:28;;;;;;;27.88;15.30;;;;;;;2.00;70.21;101228.31;4187651;28;20043;-68
2023/01/27 07:43:31;;;;;;;26.30;15.35;;;;;;;1.97;70.27;101229.78;4195360;28;20036;-68
2023/01/27 07:45:34;;;;;;;25.23;12.95;;;;;;;1.97;70.41;101240.03;4176230;28;20423;-68
2023/01/27 07:47:37;;;;;;;24.85;13.43;;;;;;;2.04;70.36;101240.50;4195147;28;20450;-68
2023/01/27 07:49:40;;;;;;;26.98;14.85;;;;;;;1.92;70.83;101235.50;4191005;28;20048;-68
2023/01/27 07:51:43;;;;;;;23.42;13.88;;;;;;;1.95;71.02;101242.53;4185791;28;20052;-68
2023/01/27 07:53:47;;;;;;;23.52;13.05;;;;;;;1.98;71.46;101252.97;4170768;28;20041;-68
2023/01/27 07:55:50;;;;;;;25.10;14.48;;;;;;;2.09;70.92;101253.63;4191656;28;20036;-69
2023/01/27 07:57:53;;;;;;;22.17;13.32;;;;;;;2.07;70.78;101255.19;4191669;28;20032;-68
2023/01/27 07:59:56;;;;;;;25.20;13.18;;;;;;;2.16;70.60;101244.63;4198036;28;20041;-68
2023/01/27 08:01:58;;;;;;;21.27;13.40;;;;;;;2.24;69.19;101254.56;4191816;28;20043;-68
2023/01/27 08:04:02;;;;;;;20.70;12.63;;;;;;;2.29;68.97;101252.25;4191172;28;20703;-68
2023/01/27 08:06:06;;;;;;;27.20;13.50;;;;;;;2.17;69.30;101254.97;4187758;28;20029;-68
2023/01/27 08:08:08;;;;;;;22.07;12.50;;;;;;;2.04;69.53;101265.28;4196654;28;20048;-68
2023/01/27 08:10:13;;;;;;;22.63;13.77;;;;;;;2.04;70.06;101271.28;4175236;28;20581;-68
2023/01/27 08:12:16;;;;;;;;;;;;;;;1.97;70.38;101271.72;4197161;28;20040;-68
2023/01/27 08:14:19;;;;;;;25.23;13.82;;;;;;;2.25;69.37;101265.72;4196451;28;20488;-68
2023/01/27 08:16:22;;;;;;;23.27;12.82;;;;;;;2.20;69.04;101259.41;4190964;28;20760;-68
2023/01/27 08:18:25;;;;;;;24.27;13.93;;;;;;;2.02;69.89;101265.19;4187308;28;20053;-68
2023/01/27 08:20:28;;;;;;;21.02;12.82;;;;;;;1.95;70.43;101260.47;4190257;28;20105;-68
2023/01/27 08:22:31;;;;;;;23.65;14.15;;;;;;;2.18;70.32;101261.00;4190062;28;20049;-69
2023/01/27 08:24:35;;;;;;;24.60;13.30;;;;;;;2.24;69.48;101269.94;4190121;28;20033;-69
2023/01/27 08:26:39;;;;;;;29.13;14.00;;;;;;;2.39;68.47;101262.28;4172917;28;20111;-69
2023/01/27 08:28:42;;;;;;;29.33;14.20;;;;;;;2.21;68.88;101267.19;4195670;28;20041;-69
2023/01/27 08:30:45;;;;;;;26.02;14.57;;;;;;;2.06;69.39;101267.16;4191085;28;20040;-68
2023/01/27 08:32:48;;;;;;;23.73;13.38;;;;;;;2.00;69.94;101264.22;4187861;28;20037;-68
2023/01/27 08:34:51;;;;;;;30.75;15.43;;;;;;;2.08;69.30;101267.25;4195275;28;20032;-68
2023/01/27 08:36:53;;;;;;;23.13;13.43;;;;;;;2.24;69.57;101262.25;4187611;28;20033;-69
2023/01/27 08:38:56;;;;;;;26.42;14.57;;;;;;;2.21;68.79;101263.75;4192419;28;20033;-69
2023/01/27 08:41:03;;;;;;;24.70;13.65;;;;;;;2.24;69.00;101269.06;4176862;28;20103;-70
2023/01/27 08:43:07;;;;;;;24.08;14.38;;;;;;;2.26;68.53;101262.34;4187126;28;20064;-69
2023/01/27 08:45:11;;;;;;;24.42;13.65;;;;;;;2.12;68.74;101260.59;4183366;28;20051;-69
2023/01/27 08:47:13;;;;;;;24.80;13.48;;;;;;;2.05;69.76;101273.06;4175857;28;20025;-69
2023/01/27 08:49:16;;;;;;;22.88;13.48;;;;;;;2.08;69.32;101270.69;4187712;28;20485;-69
2023/01/27 08:51:19;;;;;;;22.15;12.73;;;;;;;2.19;69.54;101276.50;4187973;28;20040;-69
2023/01/27 08:53:23;;;;;;;21.98;12.68;;;;;;;2.19;69.70;101278.16;4194577;28;20572;-69
2023/01/27 08:55:26;;;;;;;23.13;13.30;;;;;;;2.20;69.57;101267.09;4195549;28;20036;-69
2023/01/27 08:57:31;;;;;;;23.05;12.80;;;;;;;2.33;69.40;101277.31;4171242;28;20041;-69
2023/01/27 08:59:35;;;;;;;17.63;10.82;;;;;;;2.43;68.45;101271.94;4190670;28;20119;-69
2023/01/27 09:01:40;;;;;;;19.67;11.65;;;;;;;2.47;68.14;101267.00;4187024;28;20086;-69
2023/01/27 09:03:43;;;;;;;21.13;12.95;;;;;;;2.56;67.22;101272.69;4186553;28;20040;-69
2023/01/27 09:05:47;;;;;;;21.33;12.00;;;;;;;2.55;66.77;101269.22;4189299;28;20468;-69
2023/01/27 09:07:50;;;;;;;23.15;13.00;;;;;;;2.51;67.15;101280.13;4192390;28;20053;-69
2023/01/27 09:09:53;;;;;;;20.60;11.75;;;;;;;2.54;67.03;101274.25;4190769;28;20040;-67
2023/01/27 09:12:14;;;;;;;20.73;12.05;;;;;;;2.62;66.96;101276.50;4181379;28;20055;-68
2023/01/27 09:14:19;;;;;;;21.00;13.13;;;;;;;2.56;67.49;101275.25;4189010;28;20393;-67
2023/01/27 09:16:23;;;;;;;23.35;17.73;;;;;;;2.69;65.92;101282.91;4207928;28;20086;-68
2023/01/27 09:18:26;;;;;;;19.77;11.98;;;;;;;2.77;64.63;101288.47;4193397;28;20402;-67
2023/01/27 09:20:29;;;;;;;19.20;11.05;;;;;;;2.62;65.55;101285.88;4192643;28;20043;-70
2023/01/27 09:22:32;;;;;;;16.63;9.35;;;;;;;2.48;65.74;101294.44;4189243;28;20165;-69
2023/01/27 09:24:35;;;;;;;15.48;8.73;;;;;;;2.61;65.21;101285.00;4186296;28;20036;-69
2023/01/27 09:26:38;;;;;;;14.00;8.32;;;;;;;2.60;64.38;101290.06;4186258;28;20115;-69
2023/01/27 09:28:41;;;;;;;16.15;9.23;;;;;;;2.70;64.09;101288.91;4186885;28;20544;-68
2023/01/27 09:30:44;;;;;;;14.63;9.02;;;;;;;2.65;63.97;101290.31;4186061;28;20121;-68
2023/01/27 09:32:49;;;;;;;19.95;15.35;;;;;;;2.57;64.80;101298.44;4190975;28;20041;-69
2023/01/27 09:34:52;;;;;;;17.30;10.80;;;;;;;2.64;64.15;101299.69;4187323;28;20447;-69
2023/01/27 09:37:02;;;;;;;15.80;9.35;;;;;;;2.56;64.45;101295.78;4190465;28;20041;-68
2023/01/27 09:39:07;;;;;;;13.55;8.52;;;;;;;2.57;64.15;101294.97;4188166;28;20036;-69
2023/01/27 09:41:35;;;;;;;14.23;9.23;;;;;;;2.55;64.56;101292.31;4181708;28;20283;-69
2023/01/27 09:44:00;;;;;;;15.93;8.57;;;;;;;2.61;64.57;101302.06;4181752;28;20036;-68
2023/01/27 09:46:25;;;;;;;15.77;9.63;;;;;;;2.58;64.26;101302.78;4186059;28;20486;-69
2023/01/27 09:48:46;;;;;;;16.05;9.30;;;;;;;2.72;64.57;101310.44;4186595;28;20033;-69
2023/01/27 09:50:55;;;;;;;20.38;10.85;;;;;;;2.78;64.17;101308.22;4183398;28;20052;-68
2023/01/27 09:53:26;;;;;;;18.05;10.77;;;;;;;2.70;64.56;101312.91;4190531;28;20491;-68
2023/01/27 09:55:38;;;;;;;17.60;10.73;;;;;;;2.67;65.09;101322.97;4149078;28;20079;-68
2023/01/27 09:57:51;;;;;;;19.30;12.40;;;;;;;2.71;64.17;101316.34;4184294;28;20090;-69
2023/01/27 10:00:18;;;;;;;20.92;11.35;;;;;;;2.71;64.43;101319.78;4190510;28;20391;-69
2023/01/27 10:02:42;;;;;;;20.25;11.13;;;;;;;2.74;64.14;101312.28;4178344;28;20033;-68
2023/01/27 10:05:01;;;;;;;16.65;10.13;;;;;;;2.70;64.61;101314.56;4185700;28;20040;-68
2023/01/27 10:07:19;;;;;;;14.55;9.13;;;;;;;2.78;63.91;101308.22;4192688;28;20099;-69